SAS48G EDDH-ENGM
Flight info
| Callsign | SAS48G |
|---|---|
| Flight time | 1h 7m |
| Altitude | 37000 |
| Route | SOKWO1G/33 SOKWO T814 EXNEL M105 AMRAK DCT NERDO/N0438F380 DCT PIPEX/N0438F390 M609 RIPAM |
| Aircraft | A20N/M-SDE2E3FGHIRWXY/LB1 |
Departure
| Time | 2026-05-05 20:05 |
|---|---|
| Airport | Hamburg Helmut Schmidt Airport (EDDH) |
Arrival
| Time | 2026-05-05 21:12 |
|---|---|
| Airport | Oslo-Gardermoen International Airport (ENGM) |
| Time | Latitude | Longitude | Altitude | Speed | Heading |
|---|---|---|---|---|---|
| 2026-05-05 19:35 | 53.63195 | 10.00384 | 43 ft | 0 kts | 86° |
| 2026-05-05 19:55 | 53.63195 | 10.00382 | 43 ft | 0 kts | 86° |
| 2026-05-05 19:55 | 53.63194 | 10.00359 | 42 ft | 2 kts | 86° |
| 2026-05-05 19:56 | 53.63193 | 10.00334 | 41 ft | 2 kts | 86° |
| 2026-05-05 19:56 | 53.63192 | 10.00309 | 41 ft | 2 kts | 86° |
| 2026-05-05 19:56 | 53.63191 | 10.00284 | 40 ft | 2 kts | 87° |
| 2026-05-05 19:56 | 53.63191 | 10.00258 | 39 ft | 2 kts | 105° |
| 2026-05-05 19:57 | 53.63197 | 10.00235 | 38 ft | 2 kts | 128° |
| 2026-05-05 19:57 | 53.63205 | 10.00223 | 38 ft | 2 kts | 145° |
| 2026-05-05 19:57 | 53.63221 | 10.00211 | 37 ft | 0 kts | 173° |
| 2026-05-05 19:58 | 53.63192 | 10.00216 | 37 ft | 3 kts | 175° |
| 2026-05-05 19:58 | 53.63185 | 10.00217 | 37 ft | 0 kts | 175° |
| 2026-05-05 20:02 | 53.63173 | 10.00218 | 37 ft | 4 kts | 174° |
| 2026-05-05 20:02 | 53.63136 | 10.00224 | 37 ft | 5 kts | 175° |
| 2026-05-05 20:02 | 53.63092 | 10.00227 | 37 ft | 6 kts | 182° |
| 2026-05-05 20:03 | 53.63047 | 10.00202 | 38 ft | 7 kts | 213° |
| 2026-05-05 20:03 | 53.63028 | 10.00181 | 38 ft | 0 kts | 213° |
| 2026-05-05 20:03 | 53.62996 | 10.00145 | 38 ft | 8 kts | 213° |
| 2026-05-05 20:03 | 53.62937 | 10.00063 | 36 ft | 12 kts | 239° |
| 2026-05-05 20:04 | 53.62895 | 9.99914 | 33 ft | 15 kts | 243° |
| 2026-05-05 20:04 | 53.62865 | 9.99782 | 31 ft | 9 kts | 278° |
| 2026-05-05 20:04 | 53.62898 | 9.99716 | 30 ft | 0 kts | 333° |
| 2026-05-05 20:04 | 53.63002 | 9.99628 | 29 ft | 55 kts | 333° |
| 2026-05-05 20:05 | 53.63600 | 9.99107 | 35 ft | 134 kts | 334° |
| 2026-05-05 20:05 | 53.64534 | 9.98284 | 460 ft | 159 kts | 336° |
| 2026-05-05 20:05 | 53.65509 | 9.97435 | 1254 ft | 162 kts | 339° |
| 2026-05-05 20:05 | 53.66510 | 9.96575 | 2101 ft | 167 kts | 340° |
| 2026-05-05 20:06 | 53.67594 | 9.95668 | 2796 ft | 184 kts | 339° |
| 2026-05-05 20:06 | 53.68811 | 9.94856 | 3494 ft | 199 kts | 351° |
| 2026-05-05 20:06 | 53.70258 | 9.94631 | 4227 ft | 218 kts | 2° |
| 2026-05-05 20:06 | 53.71840 | 9.94637 | 4728 ft | 235 kts | 2° |
| 2026-05-05 20:07 | 53.73414 | 9.94896 | 4966 ft | 219 kts | 18° |
| 2026-05-05 20:07 | 53.74802 | 9.95994 | 5012 ft | 233 kts | 32° |
| 2026-05-05 20:07 | 53.76239 | 9.97566 | 4989 ft | 252 kts | 34° |
| 2026-05-05 20:07 | 53.77792 | 9.98992 | 4977 ft | 256 kts | 17° |
| 2026-05-05 20:08 | 53.79565 | 9.99194 | 5006 ft | 259 kts | 355° |
| 2026-05-05 20:08 | 53.81396 | 9.98850 | 5104 ft | 280 kts | 355° |
| 2026-05-05 20:08 | 53.83354 | 9.98497 | 5940 ft | 288 kts | 355° |
| 2026-05-05 20:08 | 53.85279 | 9.98130 | 7228 ft | 279 kts | 353° |
| 2026-05-05 20:09 | 53.87183 | 9.97705 | 8328 ft | 277 kts | 351° |
| 2026-05-05 20:09 | 53.89096 | 9.97257 | 9203 ft | 282 kts | 351° |
| 2026-05-05 20:09 | 53.91032 | 9.96800 | 10046 ft | 286 kts | 350° |
| 2026-05-05 20:09 | 53.93016 | 9.96330 | 10697 ft | 298 kts | 350° |
| 2026-05-05 20:10 | 53.95117 | 9.95830 | 11197 ft | 314 kts | 349° |
| 2026-05-05 20:10 | 53.97328 | 9.95308 | 11937 ft | 321 kts | 349° |
| 2026-05-05 20:10 | 53.99524 | 9.94794 | 12732 ft | 325 kts | 349° |
| 2026-05-05 20:10 | 54.01767 | 9.94267 | 13501 ft | 329 kts | 349° |
| 2026-05-05 20:11 | 54.04052 | 9.93732 | 14256 ft | 334 kts | 349° |
| 2026-05-05 20:11 | 54.06350 | 9.93193 | 14996 ft | 338 kts | 349° |
| 2026-05-05 20:11 | 54.08695 | 9.92644 | 15731 ft | 342 kts | 349° |
| 2026-05-05 20:11 | 54.11074 | 9.92085 | 16454 ft | 346 kts | 348° |
| 2026-05-05 20:12 | 54.13452 | 9.91530 | 17144 ft | 351 kts | 348° |
| 2026-05-05 20:12 | 54.15894 | 9.90959 | 17827 ft | 354 kts | 348° |
| 2026-05-05 20:12 | 54.18369 | 9.90381 | 18499 ft | 358 kts | 348° |
| 2026-05-05 20:12 | 54.20855 | 9.89796 | 19156 ft | 362 kts | 348° |
| 2026-05-05 20:13 | 54.23351 | 9.89208 | 19786 ft | 366 kts | 348° |
| 2026-05-05 20:13 | 54.25895 | 9.88605 | 20393 ft | 370 kts | 347° |
| 2026-05-05 20:13 | 54.28469 | 9.87995 | 21000 ft | 374 kts | 348° |
| 2026-05-05 20:13 | 54.31065 | 9.87381 | 21609 ft | 378 kts | 347° |
| 2026-05-05 20:14 | 54.33691 | 9.86757 | 22197 ft | 381 kts | 347° |
| 2026-05-05 20:14 | 54.36299 | 9.86136 | 22783 ft | 385 kts | 347° |
| 2026-05-05 20:14 | 54.38953 | 9.85506 | 23354 ft | 388 kts | 347° |
| 2026-05-05 20:14 | 54.41656 | 9.84860 | 23904 ft | 392 kts | 347° |
| 2026-05-05 20:15 | 54.44346 | 9.84219 | 24434 ft | 396 kts | 347° |
| 2026-05-05 20:15 | 54.47068 | 9.83568 | 24948 ft | 399 kts | 347° |
| 2026-05-05 20:15 | 54.49849 | 9.82903 | 25459 ft | 403 kts | 347° |
| 2026-05-05 20:15 | 54.52638 | 9.82235 | 25956 ft | 407 kts | 347° |
| 2026-05-05 20:16 | 54.55455 | 9.81560 | 26458 ft | 410 kts | 346° |
| 2026-05-05 20:16 | 54.58265 | 9.80885 | 26936 ft | 413 kts | 346° |
| 2026-05-05 20:16 | 54.61136 | 9.80192 | 27395 ft | 416 kts | 346° |
| 2026-05-05 20:16 | 54.63981 | 9.79506 | 27839 ft | 419 kts | 346° |
| 2026-05-05 20:17 | 54.66896 | 9.78800 | 28294 ft | 422 kts | 346° |
| 2026-05-05 20:17 | 54.69794 | 9.78100 | 28739 ft | 425 kts | 346° |
| 2026-05-05 20:17 | 54.72720 | 9.77391 | 29165 ft | 427 kts | 346° |
| 2026-05-05 20:17 | 54.75682 | 9.76671 | 29578 ft | 430 kts | 345° |
| 2026-05-05 20:18 | 54.78614 | 9.75958 | 29962 ft | 433 kts | 345° |
| 2026-05-05 20:18 | 54.81601 | 9.75233 | 30322 ft | 437 kts | 346° |
| 2026-05-05 20:18 | 54.84658 | 9.74649 | 30696 ft | 441 kts | 348° |
| 2026-05-05 20:18 | 54.87701 | 9.74161 | 31057 ft | 444 kts | 348° |
| 2026-05-05 20:19 | 54.90799 | 9.73684 | 31468 ft | 445 kts | 348° |
| 2026-05-05 20:19 | 54.93859 | 9.73214 | 31960 ft | 443 kts | 348° |
| 2026-05-05 20:19 | 54.96910 | 9.72742 | 32426 ft | 442 kts | 348° |
| 2026-05-05 20:19 | 54.99997 | 9.72261 | 32874 ft | 441 kts | 348° |
| 2026-05-05 20:20 | 55.03015 | 9.71788 | 33325 ft | 439 kts | 348° |
| 2026-05-05 20:20 | 55.06072 | 9.71303 | 33766 ft | 437 kts | 349° |
| 2026-05-05 20:20 | 55.09058 | 9.70828 | 34174 ft | 436 kts | 349° |
| 2026-05-05 20:20 | 55.12120 | 9.70342 | 34565 ft | 435 kts | 349° |
| 2026-05-05 20:21 | 55.15091 | 9.69874 | 34909 ft | 435 kts | 349° |
| 2026-05-05 20:21 | 55.18126 | 9.69393 | 35167 ft | 435 kts | 349° |
| 2026-05-05 20:21 | 55.21132 | 9.68912 | 35402 ft | 434 kts | 349° |
| 2026-05-05 20:21 | 55.24112 | 9.68437 | 35638 ft | 434 kts | 349° |
| 2026-05-05 20:22 | 55.27091 | 9.67960 | 35846 ft | 433 kts | 349° |
| 2026-05-05 20:22 | 55.30103 | 9.67475 | 36036 ft | 432 kts | 349° |
| 2026-05-05 20:22 | 55.33084 | 9.66994 | 36203 ft | 432 kts | 349° |
| 2026-05-05 20:22 | 55.36060 | 9.66514 | 36356 ft | 433 kts | 349° |
| 2026-05-05 20:23 | 55.39063 | 9.66028 | 36509 ft | 433 kts | 349° |
| 2026-05-05 20:23 | 55.42096 | 9.65536 | 36677 ft | 435 kts | 349° |
| 2026-05-05 20:23 | 55.45079 | 9.65052 | 36832 ft | 436 kts | 349° |
| 2026-05-05 20:23 | 55.48101 | 9.64561 | 37024 ft | 436 kts | 349° |
| 2026-05-05 20:24 | 55.51146 | 9.64066 | 37198 ft | 437 kts | 349° |
| 2026-05-05 20:24 | 55.54186 | 9.63572 | 37360 ft | 438 kts | 349° |
| 2026-05-05 20:24 | 55.57225 | 9.63075 | 37507 ft | 439 kts | 349° |
| 2026-05-05 20:24 | 55.60256 | 9.62579 | 37659 ft | 440 kts | 349° |
| 2026-05-05 20:25 | 55.63314 | 9.62077 | 37795 ft | 441 kts | 349° |
| 2026-05-05 20:25 | 55.66349 | 9.61580 | 37923 ft | 442 kts | 349° |
| 2026-05-05 20:25 | 55.69391 | 9.61081 | 37947 ft | 442 kts | 349° |
| 2026-05-05 20:26 | 55.75529 | 9.60073 | 37933 ft | 442 kts | 349° |
| 2026-05-05 20:26 | 55.81629 | 9.59066 | 37939 ft | 442 kts | 349° |
| 2026-05-05 20:27 | 55.87778 | 9.58048 | 37941 ft | 441 kts | 349° |
| 2026-05-05 20:27 | 55.93896 | 9.57030 | 37946 ft | 441 kts | 349° |
| 2026-05-05 20:28 | 55.99987 | 9.56015 | 37938 ft | 442 kts | 349° |
| 2026-05-05 20:28 | 56.06141 | 9.54984 | 37938 ft | 442 kts | 349° |
| 2026-05-05 20:29 | 56.12278 | 9.53951 | 37944 ft | 449 kts | 349° |
| 2026-05-05 20:29 | 56.18568 | 9.52898 | 37940 ft | 456 kts | 349° |
| 2026-05-05 20:30 | 56.24908 | 9.51832 | 37945 ft | 463 kts | 349° |
| 2026-05-05 20:30 | 56.31352 | 9.50743 | 37946 ft | 468 kts | 349° |
| 2026-05-05 20:31 | 56.37869 | 9.49637 | 37955 ft | 473 kts | 349° |
| 2026-05-05 20:31 | 56.44402 | 9.48523 | 37944 ft | 477 kts | 349° |
| 2026-05-05 20:32 | 56.51015 | 9.47394 | 37947 ft | 479 kts | 349° |
| 2026-05-05 20:32 | 56.57626 | 9.46259 | 37952 ft | 479 kts | 349° |
| 2026-05-05 20:33 | 56.64263 | 9.45114 | 37959 ft | 479 kts | 349° |
| 2026-05-05 20:33 | 56.70878 | 9.43970 | 37950 ft | 480 kts | 349° |
| 2026-05-05 20:34 | 56.77528 | 9.42815 | 37939 ft | 479 kts | 349° |
| 2026-05-05 20:34 | 56.84128 | 9.41664 | 37944 ft | 478 kts | 349° |
| 2026-05-05 20:35 | 56.90743 | 9.40506 | 37944 ft | 478 kts | 349° |
| 2026-05-05 20:35 | 56.97317 | 9.39349 | 37935 ft | 478 kts | 349° |
| 2026-05-05 20:36 | 57.03942 | 9.38177 | 37932 ft | 478 kts | 349° |
| 2026-05-05 20:36 | 57.10543 | 9.37009 | 37921 ft | 478 kts | 349° |
| 2026-05-05 20:37 | 57.17129 | 9.35849 | 37924 ft | 479 kts | 349° |
| 2026-05-05 20:37 | 57.23766 | 9.34670 | 37926 ft | 479 kts | 348° |
| 2026-05-05 20:38 | 57.30396 | 9.33456 | 37934 ft | 477 kts | 348° |
| 2026-05-05 20:38 | 57.36969 | 9.32262 | 37919 ft | 477 kts | 348° |
| 2026-05-05 20:39 | 57.43544 | 9.31073 | 37919 ft | 477 kts | 348° |
| 2026-05-05 20:39 | 57.50116 | 9.29883 | 37930 ft | 476 kts | 348° |
| 2026-05-05 20:40 | 57.56707 | 9.28687 | 37913 ft | 476 kts | 348° |
| 2026-05-05 20:40 | 57.63290 | 9.27489 | 37915 ft | 476 kts | 348° |
| 2026-05-05 20:41 | 57.69824 | 9.26294 | 37916 ft | 476 kts | 348° |
| 2026-05-05 20:41 | 57.76390 | 9.25088 | 37924 ft | 476 kts | 348° |
| 2026-05-05 20:42 | 57.82978 | 9.23875 | 37944 ft | 476 kts | 348° |
| 2026-05-05 20:42 | 57.89550 | 9.22658 | 37927 ft | 476 kts | 348° |
| 2026-05-05 20:43 | 57.96153 | 9.21414 | 37910 ft | 475 kts | 348° |
| 2026-05-05 20:43 | 58.02678 | 9.20175 | 37917 ft | 475 kts | 348° |
| 2026-05-05 20:44 | 58.09302 | 9.18913 | 37907 ft | 475 kts | 348° |
| 2026-05-05 20:44 | 58.12545 | 9.18301 | 37907 ft | 461 kts | 348° |
| 2026-05-05 20:44 | 58.15698 | 9.17720 | 37902 ft | 444 kts | 348° |
| 2026-05-05 20:45 | 58.24873 | 9.15964 | 37097 ft | 449 kts | 347° |
| 2026-05-05 20:45 | 58.27968 | 9.15363 | 36537 ft | 451 kts | 347° |
| 2026-05-05 20:45 | 58.31109 | 9.14758 | 36082 ft | 449 kts | 346° |
| 2026-05-05 20:46 | 58.34168 | 9.14168 | 35645 ft | 448 kts | 346° |
| 2026-05-05 20:46 | 58.37288 | 9.13564 | 35156 ft | 447 kts | 346° |
| 2026-05-05 20:46 | 58.40332 | 9.12973 | 34641 ft | 447 kts | 345° |
| 2026-05-05 20:46 | 58.43453 | 9.12363 | 34036 ft | 446 kts | 345° |
| 2026-05-05 20:47 | 58.46503 | 9.11763 | 33364 ft | 446 kts | 345° |
| 2026-05-05 20:47 | 58.49612 | 9.11152 | 32682 ft | 446 kts | 345° |
| 2026-05-05 20:47 | 58.52639 | 9.10558 | 31983 ft | 446 kts | 345° |
| 2026-05-05 20:47 | 58.55712 | 9.09952 | 31265 ft | 445 kts | 345° |
| 2026-05-05 20:48 | 58.58797 | 9.09344 | 30521 ft | 445 kts | 345° |
| 2026-05-05 20:48 | 58.61840 | 9.08748 | 29985 ft | 439 kts | 345° |
| 2026-05-05 20:48 | 58.64865 | 9.08155 | 29483 ft | 433 kts | 345° |
| 2026-05-05 20:48 | 58.67800 | 9.07577 | 28942 ft | 429 kts | 345° |
| 2026-05-05 20:49 | 58.70764 | 9.06989 | 28373 ft | 426 kts | 345° |
| 2026-05-05 20:49 | 58.73705 | 9.06405 | 27796 ft | 422 kts | 345° |
| 2026-05-05 20:49 | 58.76612 | 9.05827 | 27249 ft | 419 kts | 345° |
| 2026-05-05 20:49 | 58.79489 | 9.05254 | 26712 ft | 414 kts | 345° |
| 2026-05-05 20:50 | 58.82364 | 9.04824 | 26156 ft | 418 kts | 352° |
| 2026-05-05 20:50 | 58.85298 | 9.05901 | 25571 ft | 437 kts | 13° |
| 2026-05-05 20:50 | 58.87943 | 9.08791 | 25024 ft | 450 kts | 30° |
| 2026-05-05 20:50 | 58.90376 | 9.12529 | 24493 ft | 440 kts | 32° |
| 2026-05-05 20:51 | 58.92729 | 9.16284 | 24003 ft | 437 kts | 33° |
| 2026-05-05 20:51 | 58.95066 | 9.19994 | 23517 ft | 433 kts | 32° |
| 2026-05-05 20:51 | 58.97407 | 9.23673 | 23070 ft | 429 kts | 32° |
| 2026-05-05 20:51 | 58.99748 | 9.27328 | 22661 ft | 424 kts | 31° |
| 2026-05-05 20:52 | 59.02055 | 9.30912 | 22214 ft | 420 kts | 31° |
| 2026-05-05 20:52 | 59.04304 | 9.34403 | 21825 ft | 415 kts | 31° |
| 2026-05-05 20:52 | 59.06572 | 9.37925 | 21402 ft | 411 kts | 31° |
| 2026-05-05 20:52 | 59.08812 | 9.41407 | 20978 ft | 408 kts | 31° |
| 2026-05-05 20:53 | 59.11028 | 9.44855 | 20573 ft | 404 kts | 31° |
| 2026-05-05 20:53 | 59.13222 | 9.48263 | 20158 ft | 400 kts | 31° |
| 2026-05-05 20:53 | 59.15415 | 9.51681 | 19708 ft | 397 kts | 31° |
| 2026-05-05 20:53 | 59.17547 | 9.54995 | 19302 ft | 394 kts | 30° |
| 2026-05-05 20:54 | 59.19728 | 9.58310 | 18879 ft | 391 kts | 30° |
| 2026-05-05 20:54 | 59.21862 | 9.61544 | 18484 ft | 387 kts | 30° |
| 2026-05-05 20:54 | 59.23947 | 9.64705 | 18115 ft | 383 kts | 30° |
| 2026-05-05 20:54 | 59.26041 | 9.67895 | 17760 ft | 379 kts | 31° |
| 2026-05-05 20:55 | 59.28119 | 9.71082 | 17387 ft | 374 kts | 32° |
| 2026-05-05 20:55 | 59.30148 | 9.74203 | 17036 ft | 370 kts | 32° |
| 2026-05-05 20:55 | 59.32133 | 9.77260 | 16677 ft | 366 kts | 32° |
| 2026-05-05 20:55 | 59.34111 | 9.80309 | 16352 ft | 361 kts | 32° |
| 2026-05-05 20:56 | 59.36071 | 9.83331 | 16009 ft | 357 kts | 32° |
| 2026-05-05 20:56 | 59.38020 | 9.86339 | 15684 ft | 353 kts | 33° |
| 2026-05-05 20:56 | 59.39927 | 9.89290 | 15365 ft | 349 kts | 33° |
| 2026-05-05 20:56 | 59.41807 | 9.92209 | 15024 ft | 346 kts | 33° |
| 2026-05-05 20:57 | 59.43677 | 9.95112 | 14718 ft | 342 kts | 34° |
| 2026-05-05 20:57 | 59.45528 | 9.97988 | 14382 ft | 339 kts | 34° |
| 2026-05-05 20:57 | 59.47361 | 10.00834 | 14065 ft | 336 kts | 34° |
| 2026-05-05 20:57 | 59.49195 | 10.03688 | 13710 ft | 333 kts | 34° |
| 2026-05-05 20:58 | 59.51006 | 10.06513 | 13369 ft | 330 kts | 34° |
| 2026-05-05 20:58 | 59.52800 | 10.09315 | 13019 ft | 328 kts | 34° |
| 2026-05-05 20:58 | 59.54603 | 10.12134 | 12673 ft | 325 kts | 35° |
| 2026-05-05 20:58 | 59.56362 | 10.14888 | 12351 ft | 322 kts | 35° |
| 2026-05-05 20:59 | 59.58111 | 10.17633 | 11985 ft | 320 kts | 35° |
| 2026-05-05 20:59 | 59.59845 | 10.20356 | 11647 ft | 317 kts | 35° |
| 2026-05-05 20:59 | 59.61551 | 10.23038 | 11316 ft | 315 kts | 36° |
| 2026-05-05 20:59 | 59.63255 | 10.25721 | 10958 ft | 313 kts | 36° |
| 2026-05-05 21:00 | 59.64968 | 10.28423 | 10617 ft | 311 kts | 36° |
| 2026-05-05 21:00 | 59.66642 | 10.31061 | 10261 ft | 309 kts | 36° |
| 2026-05-05 21:00 | 59.68310 | 10.33702 | 9934 ft | 305 kts | 36° |
| 2026-05-05 21:00 | 59.69908 | 10.36235 | 9851 ft | 283 kts | 37° |
| 2026-05-05 21:01 | 59.71425 | 10.38648 | 9749 ft | 272 kts | 36° |
| 2026-05-05 21:01 | 59.72894 | 10.40983 | 9446 ft | 272 kts | 36° |
| 2026-05-05 21:01 | 59.74343 | 10.43283 | 9159 ft | 270 kts | 37° |
| 2026-05-05 21:01 | 59.75805 | 10.45606 | 8881 ft | 269 kts | 37° |
| 2026-05-05 21:02 | 59.77276 | 10.47945 | 8573 ft | 268 kts | 37° |
| 2026-05-05 21:02 | 59.78715 | 10.50240 | 8279 ft | 266 kts | 37° |
| 2026-05-05 21:02 | 59.80150 | 10.52534 | 7990 ft | 265 kts | 37° |
| 2026-05-05 21:02 | 59.81596 | 10.54854 | 7678 ft | 263 kts | 37° |
| 2026-05-05 21:03 | 59.83025 | 10.57144 | 7381 ft | 261 kts | 37° |
| 2026-05-05 21:03 | 59.84418 | 10.59378 | 7092 ft | 259 kts | 37° |
| 2026-05-05 21:03 | 59.85816 | 10.61614 | 6806 ft | 257 kts | 37° |
| 2026-05-05 21:03 | 59.87194 | 10.63821 | 6520 ft | 255 kts | 37° |
| 2026-05-05 21:04 | 59.88579 | 10.66048 | 6233 ft | 254 kts | 38° |
| 2026-05-05 21:04 | 59.89950 | 10.68265 | 5938 ft | 252 kts | 39° |
| 2026-05-05 21:04 | 59.91305 | 10.70459 | 5655 ft | 251 kts | 38° |
| 2026-05-05 21:04 | 59.92663 | 10.72655 | 5374 ft | 249 kts | 39° |
| 2026-05-05 21:05 | 59.93992 | 10.74803 | 5096 ft | 248 kts | 39° |
| 2026-05-05 21:05 | 59.95319 | 10.76950 | 4991 ft | 236 kts | 38° |
| 2026-05-05 21:05 | 59.96536 | 10.78940 | 4979 ft | 222 kts | 42° |
| 2026-05-05 21:05 | 59.97401 | 10.81433 | 4922 ft | 221 kts | 71° |
| 2026-05-05 21:06 | 59.97643 | 10.84468 | 4625 ft | 222 kts | 84° |
| 2026-05-05 21:06 | 59.97768 | 10.87542 | 4364 ft | 221 kts | 84° |
| 2026-05-05 21:06 | 59.97899 | 10.90568 | 4181 ft | 216 kts | 84° |
| 2026-05-05 21:06 | 59.98038 | 10.93547 | 4047 ft | 216 kts | 83° |
| 2026-05-05 21:07 | 59.98183 | 10.96524 | 3984 ft | 214 kts | 82° |
| 2026-05-05 21:07 | 59.98614 | 10.99335 | 3974 ft | 211 kts | 53° |
| 2026-05-05 21:07 | 59.99710 | 11.01103 | 3959 ft | 196 kts | 19° |
| 2026-05-05 21:07 | 60.01018 | 11.01735 | 3973 ft | 195 kts | 10° |
| 2026-05-05 21:08 | 60.02352 | 11.02239 | 3868 ft | 192 kts | 11° |
| 2026-05-05 21:08 | 60.03615 | 11.02790 | 3638 ft | 179 kts | 13° |
| 2026-05-05 21:08 | 60.04783 | 11.03391 | 3379 ft | 168 kts | 15° |
| 2026-05-05 21:08 | 60.05886 | 11.04008 | 3112 ft | 158 kts | 16° |
| 2026-05-05 21:09 | 60.06904 | 11.04597 | 2883 ft | 146 kts | 16° |
| 2026-05-05 21:09 | 60.07851 | 11.05148 | 2658 ft | 137 kts | 16° |
| 2026-05-05 21:09 | 60.08754 | 11.05674 | 2494 ft | 137 kts | 16° |
| 2026-05-05 21:09 | 60.09689 | 11.06217 | 2319 ft | 138 kts | 15° |
| 2026-05-05 21:10 | 60.10603 | 11.06744 | 2142 ft | 138 kts | 15° |
| 2026-05-05 21:10 | 60.11531 | 11.07277 | 1961 ft | 139 kts | 15° |
| 2026-05-05 21:10 | 60.12456 | 11.07818 | 1771 ft | 139 kts | 15° |
| 2026-05-05 21:10 | 60.13388 | 11.08380 | 1549 ft | 139 kts | 15° |
| 2026-05-05 21:11 | 60.14310 | 11.08909 | 1312 ft | 136 kts | 13° |
| 2026-05-05 21:11 | 60.15214 | 11.09394 | 1167 ft | 135 kts | 14° |
| 2026-05-05 21:11 | 60.16114 | 11.09908 | 1034 ft | 135 kts | 16° |
| 2026-05-05 21:11 | 60.17022 | 11.10463 | 839 ft | 134 kts | 15° |
| 2026-05-05 21:12 | 60.17904 | 11.10961 | 690 ft | 129 kts | 18° |
| 2026-05-05 21:12 | 60.18652 | 11.11398 | 708 ft | 88 kts | 15° |
| 2026-05-05 21:12 | 60.19087 | 11.11651 | 700 ft | 47 kts | 15° |
| 2026-05-05 21:12 | 60.19315 | 11.11636 | 700 ft | 23 kts | 319° |
| 2026-05-05 21:13 | 60.19361 | 11.11432 | 699 ft | 11 kts | 288° |
| 2026-05-05 21:13 | 60.19391 | 11.11242 | 690 ft | 16 kts | 287° |
| 2026-05-05 21:13 | 60.19427 | 11.10998 | 687 ft | 18 kts | 286° |
| 2026-05-05 21:13 | 60.19464 | 11.10749 | 687 ft | 18 kts | 285° |
| 2026-05-05 21:14 | 60.19500 | 11.10503 | 687 ft | 16 kts | 287° |
| 2026-05-05 21:14 | 60.19538 | 11.10292 | 687 ft | 11 kts | 303° |
| 2026-05-05 21:14 | 60.19559 | 11.10208 | 687 ft | 1 kts | 288° |
| 2026-05-05 21:14 | 60.19563 | 11.10179 | 687 ft | 3 kts | 287° |
| 2026-05-05 21:15 | 60.19569 | 11.10138 | 687 ft | 0 kts | 286° |